createdAt,value
2023-03-21T00:01:05.017Z,99.90
2023-03-21T00:03:38.576Z,99.90
2023-03-21T00:06:13.975Z,99.90
2023-03-21T00:08:47.444Z,99.90
2023-03-21T00:11:22.381Z,99.90
2023-03-21T00:13:58.541Z,99.90
2023-03-21T00:16:34.379Z,99.90
2023-03-21T00:19:10.849Z,99.90
2023-03-21T00:22:03.286Z,99.90
2023-03-21T00:24:39.377Z,99.90
2023-03-21T00:27:39.746Z,99.90
2023-03-21T00:30:08.594Z,99.90
2023-03-21T00:32:53.296Z,99.90
2023-03-21T00:36:06.679Z,99.90
2023-03-21T00:38:25.244Z,99.90
2023-03-21T00:41:04.645Z,99.90
2023-03-21T00:43:40.271Z,99.90
2023-03-21T00:46:13.906Z,99.90
2023-03-21T00:48:47.486Z,99.90
2023-03-21T00:51:27.212Z,99.90
2023-03-21T00:54:01.096Z,99.90
2023-03-21T00:56:34.896Z,99.90
2023-03-21T00:59:09.757Z,99.90
2023-03-21T01:01:43.346Z,99.90
2023-03-21T01:04:17.220Z,99.90
2023-03-21T01:06:50.711Z,99.90
2023-03-21T01:09:26.081Z,99.90
2023-03-21T01:11:59.585Z,99.90
2023-03-21T01:14:34.436Z,99.90
2023-03-21T01:17:09.063Z,99.90
2023-03-21T01:19:51.594Z,99.90
2023-03-21T01:22:25.933Z,99.90
2023-03-21T01:25:12.057Z,99.90
2023-03-21T01:27:46.878Z,99.90
2023-03-21T01:30:24.113Z,99.90
2023-03-21T01:32:58.438Z,99.90
2023-03-21T01:35:37.532Z,99.90
2023-03-21T01:38:14.676Z,99.90
2023-03-21T01:40:52.298Z,99.90
2023-03-21T01:43:34.749Z,99.90
2023-03-21T01:46:23.727Z,99.90
2023-03-21T01:49:10.081Z,99.90
2023-03-21T01:51:47.296Z,99.90
2023-03-21T01:54:26.008Z,99.90
2023-03-21T01:57:03.776Z,99.90
2023-03-21T01:59:41.963Z,99.90
2023-03-21T02:02:37.598Z,99.90
2023-03-21T02:05:31.105Z,99.90
2023-03-21T02:08:04.679Z,99.90
2023-03-21T02:10:38.700Z,99.90
2023-03-21T02:13:14.752Z,99.90
2023-03-21T02:16:03.488Z,99.90
2023-03-21T02:18:52.735Z,99.90
2023-03-21T02:22:03.311Z,99.90
2023-03-21T02:24:59.703Z,99.90
2023-03-21T02:27:38.462Z,99.90
2023-03-21T02:30:51.689Z,99.90
2023-03-21T02:34:12.715Z,99.90
2023-03-21T02:37:14.085Z,99.90
2023-03-21T02:40:01.947Z,99.90
2023-03-21T02:42:54.818Z,99.90
2023-03-21T02:45:39.510Z,99.90
2023-03-21T02:48:27.785Z,99.90
2023-03-21T02:51:08.724Z,99.90
2023-03-21T02:53:51.782Z,99.90
2023-03-21T02:56:31.420Z,99.90
2023-03-21T02:59:07.410Z,99.90
2023-03-21T03:01:41.302Z,99.90
2023-03-21T03:04:22.678Z,99.90
2023-03-21T03:07:19.024Z,99.90
2023-03-21T03:10:20.115Z,99.90
2023-03-21T03:13:02.920Z,99.90
2023-03-21T03:15:39.740Z,99.90
2023-03-21T03:18:18.319Z,99.90
2023-03-21T03:21:03.598Z,99.90
2023-03-21T03:23:45.435Z,99.90
2023-03-21T03:26:26.518Z,99.90
2023-03-21T03:29:06.402Z,99.90
2023-03-21T03:31:44.737Z,99.90
2023-03-21T03:34:21.902Z,99.90
2023-03-21T03:36:58.516Z,99.90
2023-03-21T03:39:37.047Z,99.90
2023-03-21T03:42:27.597Z,99.90
2023-03-21T03:45:12.667Z,99.90
2023-03-21T03:47:57.121Z,99.90
2023-03-21T03:50:39.420Z,99.90
2023-03-21T03:53:22.311Z,99.90
2023-03-21T03:56:00.197Z,99.90
2023-03-21T03:58:45.377Z,99.90
2023-03-21T04:01:22.047Z,99.90
2023-03-21T04:04:10.389Z,99.90
2023-03-21T04:06:51.726Z,99.90
2023-03-21T04:09:41.214Z,99.90
2023-03-21T04:12:17.611Z,99.90
2023-03-21T04:15:13.704Z,99.90
2023-03-21T04:17:52.059Z,99.90
2023-03-21T04:20:36.157Z,99.90
2023-03-21T04:23:11.337Z,99.90
2023-03-21T04:25:55.782Z,99.90
2023-03-21T04:28:36.418Z,99.90
2023-03-21T04:31:25.526Z,99.90
2023-03-21T04:34:10.063Z,99.90
2023-03-21T04:36:46.674Z,99.90
2023-03-21T04:39:22.104Z,99.90
2023-03-21T04:41:57.009Z,99.90
2023-03-21T04:44:30.615Z,99.90
2023-03-21T04:47:05.741Z,99.90
2023-03-21T04:49:39.372Z,99.90
2023-03-21T04:52:12.859Z,99.90
2023-03-21T04:54:46.670Z,99.90
2023-03-21T04:57:20.242Z,99.90
2023-03-21T04:59:53.735Z,99.90
2023-03-21T05:02:30.013Z,99.90
2023-03-21T05:05:03.513Z,99.90
2023-03-21T05:07:36.962Z,99.90
2023-03-21T05:10:13.244Z,99.90
2023-03-21T05:12:47.977Z,99.90
2023-03-21T05:15:21.627Z,99.90
2023-03-21T05:17:58.639Z,99.90
2023-03-21T05:20:32.190Z,99.90
2023-03-21T05:23:05.847Z,99.90
2023-03-21T05:25:40.392Z,99.90
2023-03-21T05:28:22.490Z,99.90
2023-03-21T05:30:56.202Z,99.90
2023-03-21T05:33:31.191Z,99.90
2023-03-21T05:36:05.208Z,99.90
2023-03-21T05:38:42.792Z,99.90
2023-03-21T05:41:19.111Z,99.90
2023-03-21T05:43:52.935Z,99.90
2023-03-21T05:46:26.504Z,99.90
2023-03-21T05:49:01.565Z,99.90
2023-03-21T05:51:35.448Z,99.90
2023-03-21T05:54:08.951Z,99.90
2023-03-21T05:56:42.433Z,99.90
2023-03-21T05:59:18.722Z,99.90
2023-03-21T06:01:53.684Z,99.90
2023-03-21T06:04:28.727Z,99.90
2023-03-21T06:07:02.643Z,99.90
2023-03-21T06:09:36.791Z,99.90
2023-03-21T06:12:10.783Z,99.90
2023-03-21T06:15:10.459Z,99.90
2023-03-21T06:17:55.105Z,99.90
2023-03-21T06:20:30.118Z,99.90
2023-03-21T06:23:10.709Z,99.90
2023-03-21T06:25:44.590Z,99.90
2023-03-21T06:28:18.152Z,99.90
2023-03-21T06:30:51.623Z,99.90
2023-03-21T06:33:31.330Z,99.90
2023-03-21T06:36:06.979Z,99.90
2023-03-21T06:38:40.560Z,99.90
2023-03-21T06:41:15.686Z,99.90
2023-03-21T06:43:57.078Z,99.90
2023-03-21T06:46:31.122Z,99.90
2023-03-21T06:49:05.585Z,99.90
2023-03-21T06:51:40.556Z,99.90
2023-03-21T06:54:23.822Z,99.90
2023-03-21T06:57:08.585Z,99.90
2023-03-21T06:59:42.874Z,99.90
2023-03-21T07:02:27.565Z,99.90
2023-03-21T07:05:10.140Z,99.90
2023-03-21T07:07:45.664Z,99.90
2023-03-21T07:10:19.631Z,99.90
2023-03-21T07:13:09.032Z,99.90
2023-03-21T07:15:50.515Z,99.90
2023-03-21T07:18:24.102Z,99.90
2023-03-21T07:20:57.687Z,99.90
2023-03-21T07:23:32.749Z,99.90
2023-03-21T07:26:07.327Z,99.90
2023-03-21T07:28:40.821Z,99.90
2023-03-21T07:31:17.181Z,99.90
2023-03-21T07:33:50.706Z,99.90
2023-03-21T07:36:24.205Z,99.90
2023-03-21T07:38:59.072Z,99.90
2023-03-21T07:41:32.557Z,99.90
2023-03-21T07:44:18.068Z,99.90
2023-03-21T07:46:51.759Z,99.90
2023-03-21T07:49:26.681Z,99.90
2023-03-21T07:52:04.292Z,99.90
2023-03-21T07:54:39.758Z,99.90
2023-03-21T07:57:13.895Z,99.90
2023-03-21T07:59:47.450Z,99.90
2023-03-21T08:02:21.282Z,99.90
2023-03-21T08:04:54.876Z,99.90
2023-03-21T08:07:28.412Z,99.90
2023-03-21T08:10:03.291Z,99.90
2023-03-21T08:12:36.818Z,99.90
2023-03-21T08:15:11.365Z,99.90
2023-03-21T08:17:45.648Z,99.90
2023-03-21T08:20:21.333Z,99.90
2023-03-21T08:22:55.491Z,99.90
2023-03-21T08:25:31.503Z,99.90
2023-03-21T08:28:05.290Z,99.90
2023-03-21T08:30:39.544Z,99.90
2023-03-21T08:33:13.606Z,99.90
2023-03-21T08:35:47.478Z,99.90
2023-03-21T08:38:21.582Z,99.90
2023-03-21T08:40:58.607Z,99.90
2023-03-21T08:43:33.778Z,99.90
2023-03-21T08:46:08.014Z,99.90
2023-03-21T08:48:44.013Z,99.90
2023-03-21T08:51:17.536Z,99.90
2023-03-21T08:53:52.081Z,99.90
2023-03-21T08:56:27.054Z,99.90
2023-03-21T08:59:02.860Z,99.90
2023-03-21T09:01:37.007Z,99.90
2023-03-21T09:04:11.133Z,99.90
2023-03-21T09:06:45.658Z,99.90
2023-03-21T09:09:19.293Z,99.90
2023-03-21T09:11:54.224Z,99.90
2023-03-21T09:14:28.909Z,99.90
2023-03-21T09:17:03.151Z,99.90
2023-03-21T09:19:36.735Z,99.90
2023-03-21T09:22:14.329Z,99.90
2023-03-21T09:24:49.217Z,99.90
2023-03-21T09:27:25.506Z,99.90
2023-03-21T09:29:59.690Z,99.90
2023-03-21T09:32:34.078Z,99.90
2023-03-21T09:35:11.410Z,99.90
2023-03-21T09:37:45.053Z,99.90
2023-03-21T09:40:21.191Z,99.90
2023-03-21T09:43:07.331Z,99.90
2023-03-21T09:45:46.117Z,99.90
2023-03-21T09:48:31.319Z,99.90
2023-03-21T09:51:07.749Z,99.90
2023-03-21T09:53:43.692Z,99.90
2023-03-21T09:56:17.662Z,99.90
2023-03-21T09:58:55.704Z,99.90
2023-03-21T10:01:35.241Z,99.90
2023-03-21T10:04:13.721Z,99.90
2023-03-21T10:06:54.859Z,99.90
2023-03-21T10:09:29.506Z,95.60
2023-03-21T10:12:08.292Z,94.40
2023-03-21T10:14:47.239Z,92.10
2023-03-21T10:17:33.469Z,91.70
2023-03-21T10:20:15.539Z,91.90
2023-03-21T10:22:51.060Z,84.80
2023-03-21T10:25:31.161Z,87.70
2023-03-21T10:28:08.184Z,86.50
2023-03-21T10:30:47.564Z,88.10
2023-03-21T10:33:24.597Z,81.20
2023-03-21T10:36:01.198Z,82.60
2023-03-21T10:38:35.787Z,79.90
2023-03-21T10:41:09.395Z,79.50
2023-03-21T10:43:45.434Z,79.50
2023-03-21T10:46:23.753Z,78.10
2023-03-21T10:48:57.550Z,76.20
2023-03-21T10:51:34.909Z,77.80
2023-03-21T10:54:13.247Z,77.90
2023-03-21T10:56:54.952Z,75.70
2023-03-21T10:59:35.823Z,76.50
2023-03-21T11:02:19.108Z,75.10
2023-03-21T11:04:54.411Z,78.40
2023-03-21T11:07:31.112Z,76.10
2023-03-21T11:10:19.868Z,75.60
2023-03-21T11:13:05.432Z,72.80
2023-03-21T11:15:47.732Z,74.60
2023-03-21T11:18:24.540Z,73.10
2023-03-21T11:21:00.407Z,74.10
2023-03-21T11:23:37.334Z,73.60
2023-03-21T11:26:13.610Z,74.60
2023-03-21T11:28:47.974Z,75.20
2023-03-21T11:31:24.951Z,75.70
2023-03-21T11:34:00.382Z,76.20
2023-03-21T11:36:38.085Z,78.90
2023-03-21T11:39:25.922Z,82.20
2023-03-21T11:41:59.687Z,84.60
2023-03-21T11:44:35.766Z,87.90
2023-03-21T11:47:11.392Z,90.90
2023-03-21T11:49:48.199Z,93.40
2023-03-21T11:52:32.531Z,94.90
2023-03-21T11:55:25.924Z,96.30
2023-03-21T11:58:14.587Z,94.80
2023-03-21T12:01:01.072Z,96.10
2023-03-21T12:04:05.405Z,95.90
2023-03-21T12:06:46.851Z,97.50
2023-03-21T12:09:35.504Z,98.10
2023-03-21T12:12:24.497Z,99.90
2023-03-21T12:15:14.512Z,99.90
2023-03-21T12:18:00.063Z,99.90
2023-03-21T12:20:43.196Z,99.90
2023-03-21T12:23:58.513Z,99.90
2023-03-21T12:26:35.821Z,99.90
2023-03-21T12:29:27.204Z,99.90
2023-03-21T12:32:10.829Z,99.90
2023-03-21T12:35:00.879Z,99.90
2023-03-21T12:37:42.097Z,99.20
2023-03-21T12:40:23.612Z,99.30
2023-03-21T12:43:08.903Z,99.90
2023-03-21T12:45:47.646Z,99.80
2023-03-21T12:48:28.573Z,99.90
2023-03-21T12:51:06.829Z,99.50
2023-03-21T12:53:53.166Z,98.00
2023-03-21T12:56:32.235Z,98.50
2023-03-21T12:59:17.182Z,99.50
2023-03-21T13:01:54.691Z,99.50
2023-03-21T13:04:41.505Z,99.90
2023-03-21T13:07:20.185Z,99.30
2023-03-21T13:09:55.427Z,99.70
2023-03-21T13:12:55.888Z,99.30
2023-03-21T13:16:03.857Z,98.30
2023-03-21T13:18:45.624Z,99.70
2023-03-21T13:21:24.470Z,99.90
2023-03-21T13:24:03.002Z,99.90
2023-03-21T13:26:40.705Z,99.90
2023-03-21T13:29:23.929Z,99.90
2023-03-21T13:32:09.283Z,99.90
2023-03-21T13:34:43.148Z,99.90
2023-03-21T13:37:19.884Z,99.90
2023-03-21T13:39:54.004Z,99.90
2023-03-21T13:42:34.185Z,99.90
2023-03-21T13:45:12.636Z,99.90
2023-03-21T13:47:55.060Z,99.90
2023-03-21T13:50:45.333Z,99.90
2023-03-21T13:53:31.890Z,99.90
2023-03-21T13:56:23.042Z,99.90
2023-03-21T13:59:03.189Z,99.90
2023-03-21T14:01:41.430Z,99.90
2023-03-21T14:04:18.523Z,99.90
2023-03-21T14:06:56.874Z,99.90
2023-03-21T14:09:34.771Z,99.90
2023-03-21T14:12:11.276Z,99.90
2023-03-21T14:14:48.759Z,99.90
2023-03-21T14:17:28.833Z,99.90
2023-03-21T14:20:12.160Z,99.90
2023-03-21T14:22:48.455Z,99.90
2023-03-21T14:25:27.232Z,99.90
2023-03-21T14:28:06.180Z,99.90
2023-03-21T14:30:42.506Z,99.90
2023-03-21T14:33:23.544Z,99.90
2023-03-21T14:36:00.197Z,99.90
2023-03-21T14:38:36.644Z,99.90
2023-03-21T14:41:23.993Z,99.90
2023-03-21T14:44:25.359Z,99.90
2023-03-21T14:47:04.172Z,99.90
2023-03-21T14:49:39.708Z,99.90
2023-03-21T14:52:17.340Z,99.90
2023-03-21T14:54:51.658Z,99.90
2023-03-21T14:57:28.781Z,99.90
2023-03-21T15:00:12.429Z,99.90
2023-03-21T15:02:46.580Z,99.90
2023-03-21T15:05:26.768Z,99.90
2023-03-21T15:08:03.541Z,99.90
2023-03-21T15:10:38.560Z,99.90
2023-03-21T15:13:17.633Z,99.90
2023-03-21T15:15:52.213Z,99.90
2023-03-21T15:18:29.058Z,99.90
2023-03-21T15:21:06.943Z,99.90
2023-03-21T15:23:42.851Z,99.90
2023-03-21T15:26:18.571Z,99.90
2023-03-21T15:28:57.004Z,99.90
2023-03-21T15:31:32.866Z,99.90
2023-03-21T15:34:07.062Z,99.90
2023-03-21T15:36:48.829Z,99.90
2023-03-21T15:39:23.869Z,99.90
2023-03-21T15:41:59.877Z,99.90
2023-03-21T15:44:35.876Z,99.90
2023-03-21T15:47:15.002Z,99.90
2023-03-21T15:49:55.999Z,99.90
2023-03-21T15:52:33.252Z,99.90
2023-03-21T15:55:22.886Z,99.90
2023-03-21T15:58:01.929Z,99.90
2023-03-21T16:00:40.863Z,99.90
2023-03-21T16:03:19.282Z,99.90
2023-03-21T16:06:11.024Z,99.90
2023-03-21T16:08:47.794Z,99.90
2023-03-21T16:11:26.181Z,99.90
2023-03-21T16:13:59.928Z,99.90
2023-03-21T16:16:33.580Z,99.90
2023-03-21T16:19:07.561Z,99.90
2023-03-21T16:21:42.170Z,99.90
2023-03-21T16:24:17.136Z,99.90
2023-03-21T16:26:53.461Z,99.90
2023-03-21T16:29:26.913Z,99.90
2023-03-21T16:32:06.110Z,99.90
2023-03-21T16:34:42.102Z,99.90
2023-03-21T16:37:16.844Z,99.90
2023-03-21T16:39:51.741Z,99.90
2023-03-21T16:42:25.296Z,99.90
2023-03-21T16:44:58.814Z,99.90
2023-03-21T16:47:32.469Z,99.90
2023-03-21T16:50:21.977Z,99.90
2023-03-21T16:52:55.932Z,99.90
2023-03-21T16:55:33.029Z,99.90
2023-03-21T16:58:07.499Z,99.90
2023-03-21T17:00:41.197Z,99.90
2023-03-21T17:03:19.020Z,99.90
2023-03-21T17:05:52.624Z,99.90
2023-03-21T17:08:28.284Z,99.90
2023-03-21T17:11:06.410Z,99.90
2023-03-21T17:13:40.321Z,99.90
2023-03-21T17:16:14.894Z,99.90
2023-03-21T17:18:49.022Z,99.90
2023-03-21T17:21:25.464Z,99.90
2023-03-21T17:23:59.415Z,99.90
2023-03-21T17:26:34.318Z,99.90
2023-03-21T17:29:08.325Z,99.90
2023-03-21T17:31:42.490Z,99.90
2023-03-21T17:34:16.365Z,99.90
2023-03-21T17:36:50.015Z,99.90
2023-03-21T17:39:25.855Z,99.90
2023-03-21T17:42:00.772Z,99.90
2023-03-21T17:44:34.253Z,99.90
2023-03-21T17:47:07.795Z,99.90
2023-03-21T17:49:42.225Z,99.90
2023-03-21T17:52:15.686Z,99.90
2023-03-21T17:54:49.197Z,99.90
2023-03-21T17:57:25.644Z,99.90
2023-03-21T17:59:59.124Z,99.90
2023-03-21T18:02:33.258Z,99.90
2023-03-21T18:05:08.628Z,99.90
2023-03-21T18:08:08.922Z,99.90
2023-03-21T18:10:36.951Z,99.90
2023-03-21T18:13:12.344Z,99.90
2023-03-21T18:15:48.341Z,99.90
2023-03-21T18:18:21.961Z,99.90
2023-03-21T18:20:57.957Z,99.90
2023-03-21T18:23:33.138Z,99.90
2023-03-21T18:26:07.871Z,99.90
2023-03-21T18:28:43.682Z,99.90
2023-03-21T18:31:20.619Z,99.90
2023-03-21T18:33:54.884Z,99.90
2023-03-21T18:36:29.156Z,99.90
2023-03-21T18:39:03.801Z,99.90
2023-03-21T18:41:37.323Z,99.90
2023-03-21T18:44:19.136Z,99.90
2023-03-21T18:46:59.473Z,99.90
2023-03-21T18:50:10.642Z,99.90
2023-03-21T18:52:27.347Z,99.90
2023-03-21T18:55:00.874Z,99.90
2023-03-21T18:57:37.813Z,99.90
2023-03-21T19:00:17.580Z,99.90
2023-03-21T19:03:02.938Z,99.90
2023-03-21T19:05:43.889Z,99.90
2023-03-21T19:08:17.582Z,99.90
2023-03-21T19:10:52.046Z,99.90
2023-03-21T19:13:25.756Z,99.90
2023-03-21T19:16:02.368Z,99.90
2023-03-21T19:18:53.514Z,99.90
2023-03-21T19:21:27.915Z,99.90
2023-03-21T19:24:26.653Z,99.90
2023-03-21T19:26:55.072Z,99.90
2023-03-21T19:29:28.783Z,99.90
2023-03-21T19:32:03.794Z,99.90
2023-03-21T19:34:37.365Z,99.90
2023-03-21T19:37:10.906Z,99.90
2023-03-21T19:39:44.587Z,99.90
2023-03-21T19:42:18.639Z,99.90
2023-03-21T19:44:52.125Z,99.90
2023-03-21T19:47:27.186Z,99.90
2023-03-21T19:52:54.789Z,99.90
2023-03-21T19:55:28.392Z,99.90
2023-03-21T19:58:02.102Z,99.90
2023-03-21T20:00:36.454Z,99.90
2023-03-21T20:03:12.029Z,99.90
2023-03-21T20:05:45.604Z,99.90
2023-03-21T20:08:20.668Z,99.90
2023-03-21T20:10:54.579Z,99.90
2023-03-21T20:13:28.716Z,99.90
2023-03-21T20:16:03.982Z,99.90
2023-03-21T20:18:39.947Z,99.90
2023-03-21T20:21:18.107Z,99.90
2023-03-21T20:23:55.266Z,99.90
2023-03-21T20:26:28.840Z,99.90
2023-03-21T20:29:37.201Z,99.90
2023-03-21T20:31:57.147Z,99.90
2023-03-21T20:34:32.131Z,99.90
2023-03-21T20:37:06.581Z,99.90
2023-03-21T20:39:40.190Z,99.90
2023-03-21T20:42:13.769Z,99.90
2023-03-21T20:45:02.674Z,99.90
2023-03-21T20:47:36.559Z,99.90
2023-03-21T20:50:14.047Z,99.90
2023-03-21T20:53:04.877Z,99.90
2023-03-21T20:55:39.823Z,99.90
2023-03-21T20:58:36.743Z,99.90
2023-03-21T21:01:14.045Z,99.90
2023-03-21T21:03:49.574Z,99.90
2023-03-21T21:06:24.545Z,99.90
2023-03-21T21:08:59.399Z,99.90
2023-03-21T21:12:05.689Z,99.90
2023-03-21T21:14:26.439Z,99.90
2023-03-21T21:17:04.923Z,99.90
2023-03-21T21:19:46.142Z,99.90
2023-03-21T21:22:21.346Z,99.90
2023-03-21T21:24:54.989Z,99.90
2023-03-21T21:27:28.571Z,99.90
2023-03-21T21:30:02.815Z,99.90
2023-03-21T21:32:36.633Z,99.90
2023-03-21T21:35:10.944Z,99.90
2023-03-21T21:37:45.965Z,99.90
2023-03-21T21:40:23.098Z,99.90
2023-03-21T21:42:57.702Z,99.90
2023-03-21T21:45:31.598Z,99.90
2023-03-21T21:48:05.406Z,99.90
2023-03-21T21:50:41.361Z,99.90
2023-03-21T21:53:18.529Z,99.90
2023-03-21T21:55:52.236Z,99.90
2023-03-21T21:58:25.990Z,99.90
2023-03-21T22:01:01.179Z,99.90
2023-03-21T22:03:41.312Z,99.90
2023-03-21T22:06:15.165Z,99.90
2023-03-21T22:08:51.906Z,99.90
2023-03-21T22:11:25.481Z,99.90
2023-03-21T22:13:58.926Z,99.90
2023-03-21T22:16:32.433Z,99.90
2023-03-21T22:19:06.197Z,99.90
2023-03-21T22:21:39.691Z,99.90
2023-03-21T22:24:14.627Z,99.90
2023-03-21T22:26:48.242Z,99.90
2023-03-21T22:29:21.792Z,99.90
2023-03-21T22:31:55.870Z,99.90
2023-03-21T22:34:29.586Z,99.90
2023-03-21T22:37:03.631Z,99.90
2023-03-21T22:39:38.592Z,99.90
2023-03-21T22:42:12.100Z,99.90
2023-03-21T22:44:45.583Z,99.90
2023-03-21T22:47:20.030Z,99.90
2023-03-21T22:49:53.620Z,99.90
2023-03-21T22:52:27.573Z,99.90
2023-03-21T22:55:02.440Z,99.90
2023-03-21T22:57:35.914Z,99.90
2023-03-21T23:00:13.591Z,99.90
2023-03-21T23:02:47.176Z,99.90
2023-03-21T23:05:20.773Z,99.90
2023-03-21T23:07:54.334Z,99.90
2023-03-21T23:10:29.261Z,99.90
2023-03-21T23:13:02.678Z,99.90
2023-03-21T23:15:36.414Z,99.90
2023-03-21T23:18:10.164Z,99.90
2023-03-21T23:20:43.623Z,99.90
2023-03-21T23:23:17.645Z,99.90
2023-03-21T23:25:52.670Z,99.90
2023-03-21T23:28:26.202Z,99.90
2023-03-21T23:30:59.858Z,99.90
2023-03-21T23:33:33.386Z,99.90
2023-03-21T23:36:08.139Z,99.90
2023-03-21T23:38:42.231Z,99.90
2023-03-21T23:41:19.234Z,99.90
2023-03-21T23:43:53.134Z,99.90
2023-03-21T23:46:26.655Z,99.90
2023-03-21T23:49:00.261Z,99.90
2023-03-21T23:51:33.719Z,99.90
2023-03-21T23:54:07.246Z,99.90
2023-03-21T23:56:42.115Z,99.90
2023-03-21T23:59:15.621Z,99.90
